createdAt,value
2022-12-01T00:01:21.340Z,59.22
2022-12-01T00:03:49.135Z,59.60
2022-12-01T00:06:18.614Z,57.28
2022-12-01T00:09:06.922Z,54.67
2022-12-01T00:11:35.434Z,50.97
2022-12-01T00:14:03.053Z,51.63
2022-12-01T00:16:30.248Z,51.58
2022-12-01T00:18:57.677Z,53.17
2022-12-01T00:21:26.260Z,53.63
2022-12-01T00:23:55.878Z,49.03
2022-12-01T00:26:23.657Z,49.58
2022-12-01T00:28:52.414Z,49.97
2022-12-01T00:31:19.919Z,49.00
2022-12-01T00:33:46.940Z,47.25
2022-12-01T00:36:14.298Z,48.10
2022-12-01T00:38:41.557Z,43.75
2022-12-01T00:41:08.597Z,45.53
2022-12-01T00:43:35.588Z,43.17
2022-12-01T00:46:02.566Z,45.08
2022-12-01T00:48:29.754Z,40.28
2022-12-01T00:50:56.956Z,39.22
2022-12-01T00:53:24.839Z,42.72
2022-12-01T00:55:54.166Z,41.72
2022-12-01T00:58:22.537Z,37.60
2022-12-01T01:00:50.443Z,35.08
2022-12-01T01:03:17.716Z,33.47
2022-12-01T01:05:44.915Z,37.10
2022-12-01T01:08:15.074Z,33.90
2022-12-01T01:10:45.193Z,35.13
2022-12-01T01:13:13.497Z,32.33
2022-12-01T01:15:40.736Z,39.35
2022-12-01T01:18:09.766Z,33.60
2022-12-01T01:20:36.797Z,36.53
2022-12-01T01:23:03.879Z,33.35
2022-12-01T01:25:33.066Z,36.35
2022-12-01T01:28:00.161Z,33.88
2022-12-01T01:30:27.533Z,37.47
2022-12-01T01:32:54.890Z,37.25
2022-12-01T01:35:21.938Z,35.13
2022-12-01T01:37:51.163Z,35.70
2022-12-01T01:40:18.784Z,33.85
2022-12-01T01:42:45.840Z,34.13
2022-12-01T01:45:29.554Z,36.13
2022-12-01T01:47:59.393Z,35.80
2022-12-01T01:50:28.856Z,33.28
2022-12-01T01:53:02.914Z,30.95
2022-12-01T01:55:32.322Z,32.80
2022-12-01T01:58:00.136Z,33.67
2022-12-01T02:00:27.407Z,28.08
2022-12-01T02:02:54.606Z,24.17
2022-12-01T02:05:24.436Z,28.13
2022-12-01T02:07:52.842Z,23.50
2022-12-01T02:10:23.694Z,21.90
2022-12-01T02:13:16.660Z,27.03
2022-12-01T02:16:14.282Z,26.65
2022-12-01T02:18:52.316Z,28.58
2022-12-01T02:21:56.680Z,27.45
2022-12-01T02:24:26.660Z,28.60
2022-12-01T02:27:13.063Z,27.17
2022-12-01T02:30:06.208Z,23.63
2022-12-01T02:32:49.376Z,22.98
2022-12-01T02:35:40.879Z,25.98
2022-12-01T02:38:45.395Z,23.00
2022-12-01T02:41:23.394Z,24.23
2022-12-01T02:44:16.118Z,23.30
2022-12-01T02:47:10.435Z,26.00
2022-12-01T02:49:41.776Z,25.83
2022-12-01T02:52:10.360Z,27.40
2022-12-01T02:54:37.895Z,28.88
2022-12-01T02:57:05.368Z,29.05
2022-12-01T02:59:32.323Z,29.85
2022-12-01T03:02:31.952Z,29.25
2022-12-01T03:05:04.894Z,27.70
2022-12-01T03:07:50.758Z,26.92
2022-12-01T03:10:37.196Z,29.55
2022-12-01T03:13:16.594Z,29.15
2022-12-01T03:16:19.292Z,27.45
2022-12-01T03:18:48.913Z,22.65
2022-12-01T03:21:40.678Z,28.27
2022-12-01T03:24:07.758Z,24.77
2022-12-01T03:26:36.635Z,22.95
2022-12-01T03:29:06.996Z,25.20
2022-12-01T03:31:42.807Z,22.38
2022-12-01T03:34:39.433Z,21.27
2022-12-01T03:37:16.273Z,23.90
2022-12-01T03:39:44.079Z,23.90
2022-12-01T03:42:22.935Z,20.85
2022-12-01T03:44:53.854Z,22.83
2022-12-01T03:47:26.375Z,21.20
2022-12-01T03:49:53.857Z,17.58
2022-12-01T03:52:23.617Z,18.10
2022-12-01T03:55:28.435Z,19.55
2022-12-01T03:58:15.082Z,18.42
2022-12-01T04:00:43.802Z,20.20
2022-12-01T04:03:17.932Z,19.75
2022-12-01T04:05:45.274Z,20.65
2022-12-01T04:08:12.378Z,21.45
2022-12-01T04:10:39.783Z,20.15
2022-12-01T04:13:12.016Z,22.67
2022-12-01T04:15:39.102Z,20.67
2022-12-01T04:18:06.122Z,19.15
2022-12-01T04:20:33.255Z,19.98
2022-12-01T04:23:00.245Z,18.13
2022-12-01T04:25:27.313Z,18.42
2022-12-01T04:27:54.116Z,16.02
2022-12-01T04:30:21.354Z,17.83
2022-12-01T04:32:48.473Z,17.48
2022-12-01T04:35:15.694Z,18.25
2022-12-01T04:37:42.794Z,19.33
2022-12-01T04:40:10.636Z,19.60
2022-12-01T04:42:37.556Z,20.27
2022-12-01T04:45:04.817Z,20.45
2022-12-01T04:47:31.760Z,20.15
2022-12-01T04:49:58.958Z,19.48
2022-12-01T04:52:27.473Z,22.20
2022-12-01T04:54:57.735Z,24.30
2022-12-01T04:57:24.704Z,23.50
2022-12-01T04:59:51.947Z,25.60
2022-12-01T05:02:19.232Z,19.92
2022-12-01T05:04:48.354Z,22.02
2022-12-01T05:07:15.635Z,22.83
2022-12-01T05:09:42.733Z,21.10
2022-12-01T05:12:10.095Z,21.77
2022-12-01T05:14:37.031Z,23.05
2022-12-01T05:17:04.015Z,24.10
2022-12-01T05:19:49.718Z,26.45
2022-12-01T05:22:17.217Z,20.27
2022-12-01T05:24:47.574Z,27.08
2022-12-01T05:27:14.540Z,28.35
2022-12-01T05:29:41.755Z,27.38
2022-12-01T05:32:08.862Z,27.63
2022-12-01T05:34:36.068Z,25.70
2022-12-01T05:37:03.211Z,25.58
2022-12-01T05:39:30.356Z,25.23
2022-12-01T05:41:57.553Z,25.05
2022-12-01T05:44:24.579Z,25.25
2022-12-01T05:46:51.564Z,24.42
2022-12-01T05:49:18.547Z,23.27
2022-12-01T05:51:45.625Z,22.33
2022-12-01T05:54:12.611Z,23.48
2022-12-01T05:56:39.723Z,26.35
2022-12-01T05:59:06.816Z,24.30
2022-12-01T06:01:34.014Z,26.13
2022-12-01T06:04:01.111Z,22.63
2022-12-01T06:06:28.156Z,23.92
2022-12-01T06:08:55.088Z,24.17
2022-12-01T06:11:22.198Z,22.42
2022-12-01T06:13:49.182Z,22.52
2022-12-01T06:16:16.320Z,22.15
2022-12-01T06:18:43.325Z,20.95
2022-12-01T06:21:10.318Z,24.40
2022-12-01T06:23:37.390Z,25.83
2022-12-01T06:26:04.540Z,26.20
2022-12-01T06:28:31.517Z,26.42
2022-12-01T06:31:03.134Z,25.23
2022-12-01T06:33:32.054Z,25.55
2022-12-01T06:36:04.199Z,21.70
2022-12-01T06:38:32.718Z,27.02
2022-12-01T06:40:59.946Z,29.67
2022-12-01T06:43:27.580Z,24.65
2022-12-01T06:46:00.832Z,25.77
2022-12-01T06:48:28.937Z,24.85
2022-12-01T06:51:02.567Z,19.95
2022-12-01T06:53:29.880Z,20.73
2022-12-01T06:56:04.483Z,19.80
2022-12-01T06:58:32.078Z,21.58
2022-12-01T07:00:59.639Z,22.00
2022-12-01T07:03:27.188Z,19.35
2022-12-01T07:06:01.868Z,20.88
2022-12-01T07:08:30.264Z,21.10
2022-12-01T07:10:59.443Z,21.63
2022-12-01T07:13:31.540Z,21.58
2022-12-01T07:16:01.560Z,23.00
2022-12-01T07:18:29.105Z,22.73
2022-12-01T07:21:04.500Z,26.58
2022-12-01T07:23:31.698Z,24.95
2022-12-01T07:26:00.300Z,23.40
2022-12-01T07:28:28.006Z,25.02
2022-12-01T07:31:20.891Z,24.52
2022-12-01T07:33:47.955Z,21.67
2022-12-01T07:36:14.980Z,25.50
2022-12-01T07:38:42.137Z,21.65
2022-12-01T07:41:11.271Z,21.95
2022-12-01T07:43:38.779Z,22.73
2022-12-01T07:46:08.834Z,27.13
2022-12-01T07:48:37.407Z,24.73
2022-12-01T07:51:08.998Z,25.38
2022-12-01T07:53:36.567Z,21.80
2022-12-01T07:56:08.337Z,21.33
2022-12-01T07:58:36.540Z,21.45
2022-12-01T08:01:14.965Z,20.65
2022-12-01T08:03:42.536Z,22.75
2022-12-01T08:06:10.084Z,19.02
2022-12-01T08:08:39.243Z,21.90
2022-12-01T08:11:10.224Z,31.63
2022-12-01T08:13:37.321Z,21.52
2022-12-01T08:16:05.564Z,23.77
2022-12-01T08:18:35.629Z,21.77
2022-12-01T08:21:03.764Z,23.40
2022-12-01T08:23:30.708Z,23.98
2022-12-01T08:26:02.398Z,22.92
2022-12-01T08:28:29.829Z,23.13
2022-12-01T08:30:56.994Z,22.52
2022-12-01T08:33:24.016Z,22.42
2022-12-01T08:35:51.068Z,23.92
2022-12-01T08:38:18.142Z,27.65
2022-12-01T08:40:45.106Z,29.75
2022-12-01T08:43:23.135Z,24.30
2022-12-01T08:46:02.061Z,22.00
2022-12-01T08:48:30.191Z,24.30
2022-12-01T08:51:18.505Z,23.85
2022-12-01T08:53:47.537Z,16.48
2022-12-01T08:56:21.219Z,18.63
2022-12-01T08:58:48.778Z,18.67
2022-12-01T09:01:16.725Z,15.90
2022-12-01T09:03:44.356Z,15.02
2022-12-01T09:06:21.639Z,14.05
2022-12-01T09:08:48.763Z,11.15
2022-12-01T09:11:17.961Z,12.30
2022-12-01T09:13:49.914Z,16.13
2022-12-01T09:16:20.171Z,14.15
2022-12-01T09:18:48.280Z,14.25
2022-12-01T09:21:21.243Z,16.80
2022-12-01T09:23:48.517Z,12.20
2022-12-01T09:26:18.684Z,26.23
2022-12-01T09:28:50.739Z,18.10
2022-12-01T09:31:18.637Z,12.20
2022-12-01T09:33:45.878Z,15.30
2022-12-01T09:36:13.607Z,12.27
2022-12-01T09:38:40.725Z,19.48
2022-12-01T09:44:22.805Z,19.42
2022-12-01T09:47:20.689Z,12.50
2022-12-01T09:50:05.722Z,11.52
2022-12-01T09:53:00.144Z,12.10
2022-12-01T09:55:29.119Z,13.98
2022-12-01T09:57:58.631Z,11.70
2022-12-01T10:00:34.706Z,13.07
2022-12-01T10:03:19.130Z,14.05
2022-12-01T10:06:24.965Z,20.77
2022-12-01T10:08:43.386Z,9.38
2022-12-01T10:11:20.606Z,48.65
2022-12-01T10:13:47.581Z,14.38
2022-12-01T10:16:20.819Z,13.00
2022-12-01T10:18:53.556Z,16.83
2022-12-01T10:21:41.088Z,25.67
2022-12-01T10:24:08.384Z,13.27
2022-12-01T10:26:50.925Z,12.07
2022-12-01T10:29:47.926Z,14.27
2022-12-01T10:32:21.665Z,13.30
2022-12-01T10:34:48.960Z,11.10
2022-12-01T10:37:28.474Z,12.10
2022-12-01T10:39:56.546Z,12.82
2022-12-01T10:42:30.603Z,16.10
2022-12-01T10:45:01.805Z,13.68
2022-12-01T10:47:29.508Z,11.40
2022-12-01T10:49:56.477Z,12.15
2022-12-01T10:52:37.918Z,12.50
2022-12-01T10:55:23.756Z,13.35
2022-12-01T10:57:51.281Z,18.42
2022-12-01T11:00:57.570Z,12.95
2022-12-01T11:03:23.100Z,15.63
2022-12-01T11:05:55.317Z,10.40
2022-12-01T11:08:24.079Z,11.38
2022-12-01T11:10:51.286Z,9.90
2022-12-01T11:13:24.687Z,10.27
2022-12-01T11:15:54.423Z,10.00
2022-12-01T11:18:33.618Z,11.98
2022-12-01T11:21:31.436Z,11.65
2022-12-01T11:23:58.442Z,39.30
2022-12-01T11:26:27.239Z,12.60
2022-12-01T11:29:20.704Z,11.48
2022-12-01T11:31:49.935Z,18.85
2022-12-01T11:34:27.280Z,11.85
2022-12-01T11:36:59.683Z,11.18
2022-12-01T11:39:32.573Z,10.25
2022-12-01T11:42:25.521Z,13.85
2022-12-01T11:45:17.092Z,13.60
2022-12-01T11:48:04.598Z,13.85
2022-12-01T11:50:38.050Z,18.20
2022-12-01T11:53:25.122Z,16.90
2022-12-01T11:55:52.130Z,19.65
2022-12-01T11:58:19.256Z,22.45
2022-12-01T12:00:50.804Z,15.68
2022-12-01T12:03:30.404Z,18.70
2022-12-01T12:06:38.395Z,24.15
2022-12-01T12:09:30.639Z,21.10
2022-12-01T12:12:01.955Z,18.02
2022-12-01T12:14:48.628Z,15.90
2022-12-01T12:17:27.870Z,14.13
2022-12-01T12:20:13.773Z,10.90
2022-12-01T12:23:08.080Z,9.68
2022-12-01T12:26:13.386Z,10.90
2022-12-01T12:29:28.322Z,12.85
2022-12-01T12:32:34.057Z,14.45
2022-12-01T12:35:07.788Z,10.32
2022-12-01T12:37:34.827Z,10.70
2022-12-01T12:40:20.598Z,13.00
2022-12-01T12:42:56.759Z,11.02
2022-12-01T12:45:27.756Z,11.40
2022-12-01T12:47:55.370Z,10.10
2022-12-01T12:50:40.983Z,9.45
2022-12-01T12:53:16.739Z,10.07
2022-12-01T12:55:47.238Z,10.35
2022-12-01T12:58:20.121Z,13.07
2022-12-01T13:00:52.575Z,14.68
2022-12-01T13:03:56.680Z,10.25
2022-12-01T13:06:37.086Z,8.35
2022-12-01T13:09:17.677Z,8.57
2022-12-01T13:11:52.258Z,8.30
2022-12-01T13:14:26.764Z,8.95
2022-12-01T13:16:57.556Z,8.80
2022-12-01T13:19:36.137Z,9.32
2022-12-01T13:22:04.834Z,9.50
2022-12-01T13:24:31.948Z,8.68
2022-12-01T13:27:04.780Z,9.15
2022-12-01T13:29:43.713Z,7.10
2022-12-01T13:32:31.980Z,6.40
2022-12-01T13:35:00.121Z,6.72
2022-12-01T13:37:35.525Z,7.82
2022-12-01T13:40:34.639Z,6.70
2022-12-01T13:43:10.372Z,7.13
2022-12-01T13:45:38.941Z,7.28
2022-12-01T13:48:07.959Z,8.13
2022-12-01T13:50:43.184Z,7.60
2022-12-01T13:53:19.256Z,7.68
2022-12-01T13:56:06.160Z,8.40
2022-12-01T13:58:33.174Z,8.30
2022-12-01T14:01:22.725Z,8.93
2022-12-01T14:04:02.635Z,7.38
2022-12-01T14:06:49.510Z,9.52
2022-12-01T14:09:40.826Z,9.35
2022-12-01T14:12:29.222Z,11.07
2022-12-01T14:14:59.060Z,13.45
2022-12-01T14:17:33.500Z,11.90
2022-12-01T14:20:20.806Z,10.43
2022-12-01T14:22:50.443Z,8.15
2022-12-01T14:25:20.510Z,12.13
2022-12-01T14:27:53.528Z,7.85
2022-12-01T14:30:39.449Z,8.20
2022-12-01T14:33:44.912Z,9.07
2022-12-01T14:36:20.863Z,9.13
2022-12-01T14:38:49.746Z,8.80
2022-12-01T14:41:26.818Z,8.82
2022-12-01T14:44:15.293Z,8.27
2022-12-01T14:46:50.527Z,8.38
2022-12-01T14:49:26.242Z,9.93
2022-12-01T14:51:56.981Z,11.95
2022-12-01T14:54:31.562Z,18.40
2022-12-01T14:57:06.263Z,15.23
2022-12-01T14:59:35.182Z,13.50
2022-12-01T15:02:09.568Z,12.57
2022-12-01T15:05:15.081Z,17.23
2022-12-01T15:07:50.493Z,13.38
2022-12-01T15:10:20.925Z,10.18
2022-12-01T15:12:48.911Z,9.18
2022-12-01T15:15:26.812Z,12.65
2022-12-01T15:17:55.899Z,19.13
2022-12-01T15:20:50.260Z,19.73
2022-12-01T15:23:17.542Z,20.58
2022-12-01T15:25:46.536Z,21.35
2022-12-01T15:28:19.987Z,27.48
2022-12-01T15:30:51.897Z,28.08
2022-12-01T15:33:34.042Z,35.30
2022-12-01T15:36:04.163Z,45.10
2022-12-01T15:38:36.341Z,46.17
2022-12-01T15:43:58.010Z,37.88
2022-12-01T15:46:32.796Z,35.63
2022-12-01T15:49:20.245Z,39.75
2022-12-01T15:51:48.855Z,34.20
2022-12-01T15:54:21.920Z,41.50
2022-12-01T15:56:55.716Z,51.75
2022-12-01T15:59:42.202Z,56.88
2022-12-01T16:02:21.293Z,60.88
2022-12-01T16:04:49.244Z,83.47
2022-12-01T16:07:16.539Z,107.57
2022-12-01T16:09:56.725Z,80.75
2022-12-01T16:12:28.359Z,80.93
2022-12-01T16:15:01.522Z,81.82
2022-12-01T16:17:50.387Z,155.73
2022-12-01T16:20:26.183Z,205.73
2022-12-01T16:22:59.385Z,170.52
2022-12-01T16:25:31.456Z,192.60
2022-12-01T16:27:58.954Z,213.00
2022-12-01T16:30:32.301Z,182.32
2022-12-01T16:33:15.576Z,97.78
2022-12-01T16:39:36.372Z,87.53
2022-12-01T16:42:03.468Z,83.30
2022-12-01T16:44:30.927Z,76.85
2022-12-01T16:46:59.838Z,71.15
2022-12-01T16:49:28.757Z,61.50
2022-12-01T16:51:57.152Z,62.25
2022-12-01T16:54:26.648Z,65.38
2022-12-01T16:56:54.037Z,66.22
2022-12-01T16:59:20.935Z,65.25
2022-12-01T17:01:48.147Z,67.75
2022-12-01T17:04:15.282Z,67.07
2022-12-01T17:06:42.264Z,68.47
2022-12-01T17:09:09.278Z,62.40
2022-12-01T17:11:36.400Z,61.95
2022-12-01T17:14:03.503Z,63.08
2022-12-01T17:16:30.692Z,58.30
2022-12-01T17:19:00.558Z,47.15
2022-12-01T17:21:27.699Z,47.13
2022-12-01T17:23:55.767Z,46.53
2022-12-01T17:26:23.392Z,52.97
2022-12-01T17:28:50.384Z,55.38
2022-12-01T17:31:17.567Z,51.70
2022-12-01T17:33:44.564Z,56.45
2022-12-01T17:36:13.186Z,70.10
2022-12-01T17:38:42.052Z,80.18
2022-12-01T17:41:10.806Z,77.88
2022-12-01T17:43:39.895Z,80.18
2022-12-01T17:46:08.438Z,71.97
2022-12-01T17:48:40.936Z,76.80
2022-12-01T17:51:09.019Z,67.30
2022-12-01T17:53:37.094Z,69.75
2022-12-01T17:56:07.732Z,67.15
2022-12-01T17:58:35.242Z,68.00
2022-12-01T18:01:05.858Z,62.92
2022-12-01T18:03:37.287Z,64.43
2022-12-01T18:06:04.670Z,58.33
2022-12-01T18:08:32.293Z,55.85
2022-12-01T18:11:10.267Z,61.97
2022-12-01T18:13:42.216Z,56.58
2022-12-01T18:16:12.331Z,55.22
2022-12-01T18:18:39.664Z,62.08
2022-12-01T18:21:08.188Z,65.10
2022-12-01T18:23:36.510Z,62.50
2022-12-01T18:26:15.375Z,57.47
2022-12-01T18:28:45.157Z,59.88
2022-12-01T18:31:16.506Z,61.28
2022-12-01T18:33:45.547Z,63.72
2022-12-01T18:36:22.784Z,66.10
2022-12-01T18:38:54.743Z,66.78
2022-12-01T18:41:25.013Z,71.97
2022-12-01T18:43:54.860Z,77.88
2022-12-01T18:46:23.095Z,81.13
2022-12-01T18:48:55.079Z,74.03
2022-12-01T18:51:24.698Z,75.90
2022-12-01T18:53:57.466Z,80.28
2022-12-01T18:56:27.005Z,70.20
2022-12-01T18:59:00.112Z,84.18
2022-12-01T19:01:44.190Z,76.18
2022-12-01T19:04:15.108Z,89.05
2022-12-01T19:06:45.347Z,81.90
2022-12-01T19:09:16.742Z,83.97
2022-12-01T19:11:47.426Z,77.03
2022-12-01T19:14:17.459Z,77.65
2022-12-01T19:16:45.484Z,83.82
2022-12-01T19:19:12.689Z,74.65
2022-12-01T19:21:39.756Z,72.25
2022-12-01T19:24:07.074Z,75.72
2022-12-01T19:26:34.274Z,66.40
2022-12-01T19:29:03.070Z,62.15
2022-12-01T19:31:31.051Z,57.03
2022-12-01T19:33:59.248Z,58.55
2022-12-01T19:36:31.848Z,56.42
2022-12-01T19:39:04.458Z,57.03
2022-12-01T19:41:37.508Z,54.05
2022-12-01T19:44:06.487Z,52.85
2022-12-01T19:46:34.448Z,56.42
2022-12-01T19:49:02.107Z,44.80
2022-12-01T19:51:36.984Z,41.65
2022-12-01T19:54:05.707Z,42.40
2022-12-01T19:56:33.306Z,47.50
2022-12-01T19:59:00.660Z,38.80
2022-12-01T20:01:28.243Z,40.65
2022-12-01T20:03:55.648Z,45.17
2022-12-01T20:06:29.164Z,44.20
2022-12-01T20:08:58.339Z,51.50
2022-12-01T20:11:25.706Z,50.40
2022-12-01T20:13:53.061Z,48.95
2022-12-01T20:16:22.953Z,41.67
2022-12-01T20:18:51.411Z,41.72
2022-12-01T20:21:22.371Z,38.45
2022-12-01T20:24:04.202Z,30.55
2022-12-01T20:26:34.218Z,26.85
2022-12-01T20:29:28.972Z,25.77
2022-12-01T20:31:58.615Z,25.83
2022-12-01T20:34:37.840Z,23.63
2022-12-01T20:37:04.869Z,23.77
2022-12-01T20:39:34.660Z,21.63
2022-12-01T20:42:01.858Z,21.27
2022-12-01T20:44:29.346Z,22.20
2022-12-01T20:46:57.004Z,25.45
2022-12-01T20:49:24.258Z,21.48
2022-12-01T20:51:51.339Z,20.73
2022-12-01T20:54:28.206Z,24.75
2022-12-01T20:56:55.773Z,23.73
2022-12-01T20:59:22.976Z,19.70
2022-12-01T21:01:50.127Z,23.20
2022-12-01T21:04:17.427Z,22.65
2022-12-01T21:06:44.402Z,21.10
2022-12-01T21:09:13.123Z,23.00
2022-12-01T21:12:06.888Z,23.80
2022-12-01T21:14:42.750Z,26.08
2022-12-01T21:17:28.125Z,26.25
2022-12-01T21:20:22.158Z,24.35
2022-12-01T21:22:50.443Z,24.23
2022-12-01T21:25:26.461Z,22.75
2022-12-01T21:27:56.759Z,26.98
2022-12-01T21:30:30.035Z,29.35
2022-12-01T21:33:19.826Z,28.05
2022-12-01T21:35:50.287Z,31.15
2022-12-01T21:38:21.747Z,29.95
2022-12-01T21:43:21.907Z,26.95
2022-12-01T21:46:11.127Z,30.08
2022-12-01T21:48:38.176Z,37.72
2022-12-01T21:51:31.036Z,29.83
2022-12-01T21:53:58.366Z,33.25
2022-12-01T21:56:27.394Z,34.10
2022-12-01T21:58:58.118Z,37.53
2022-12-01T22:01:30.087Z,37.03
2022-12-01T22:04:02.113Z,39.03
2022-12-01T22:06:45.579Z,40.78
2022-12-01T22:09:15.408Z,41.42
2022-12-01T22:11:43.424Z,41.33
2022-12-01T22:14:23.775Z,40.25
2022-12-01T22:16:59.997Z,38.17
2022-12-01T22:19:32.460Z,33.67
2022-12-01T22:22:11.653Z,35.50
2022-12-01T22:24:46.789Z,36.00
2022-12-01T22:27:30.087Z,34.08
2022-12-01T22:30:03.172Z,32.50
2022-12-01T22:32:55.907Z,35.65
2022-12-01T22:35:45.953Z,30.50
2022-12-01T22:38:31.967Z,36.67
2022-12-01T22:41:15.226Z,32.55
2022-12-01T22:43:47.396Z,33.05
2022-12-01T22:46:36.527Z,34.10
2022-12-01T22:49:17.906Z,30.30
2022-12-01T22:52:13.843Z,33.28
2022-12-01T22:54:45.593Z,31.45
2022-12-01T22:57:21.104Z,31.00
2022-12-01T22:59:48.464Z,30.73
2022-12-01T23:02:35.737Z,28.25
2022-12-01T23:05:20.643Z,26.80
2022-12-01T23:07:47.883Z,28.98
2022-12-01T23:10:20.759Z,30.90
2022-12-01T23:12:49.555Z,29.75
2022-12-01T23:15:41.997Z,30.58
2022-12-01T23:18:19.510Z,21.73
2022-12-01T23:20:49.126Z,25.52
2022-12-01T23:23:18.995Z,23.27
2022-12-01T23:25:47.396Z,26.73
2022-12-01T23:28:15.050Z,22.98
2022-12-01T23:30:44.157Z,24.00
2022-12-01T23:33:16.898Z,23.25
2022-12-01T23:36:22.873Z,24.95
2022-12-01T23:38:58.121Z,24.98
2022-12-01T23:41:39.810Z,24.63
2022-12-01T23:44:49.751Z,24.27
2022-12-01T23:47:20.585Z,30.45
2022-12-01T23:49:48.495Z,27.30
2022-12-01T23:52:20.810Z,31.10
2022-12-01T23:54:48.204Z,32.30
2022-12-01T23:57:23.265Z,35.22
2022-12-01T23:59:54.028Z,37.72
